Tikaboo Peak, Nevada Weather observations

Data are for 10 minute period ending at time listed.
 Day   Time   Solar   Ave.   Ave.  Ave.  Vector  Max.   Baro.   Total    
  of    of     Rad.   Air    Rel.  Wind   Wind   Wind  Press.  Precip.   
Year   Day            Temp.  Hum.  Speed  Dir.   Gust                    
2026   (PST)  Kw/m2    F      %     mph   deg.    mph    mb.     in.     
-------------------------------------------------------------------------
 121    7:20   0.26   43.5    33   12.4   173    20.2   762.8    0.00 
 121    7:30   0.49   44.0    33   12.0   165    18.9   762.9    0.00 
 121    7:40   0.56   45.1    31   12.5   165    19.6   762.9    0.00 
 121    7:50   0.62   47.0    29    9.2   176    17.7   763.1    0.00 
 121    8:00   0.65   47.6    28   11.9   165    20.2   763.0    0.00 
 121    8:10   0.69   46.9    29   12.7   162    20.2   763.1    0.00 
 121    8:20   0.72   46.6    30   13.6   166    18.0   763.3    0.00 
 121    8:30   0.75   46.9    29   13.4   165    22.1   763.3    0.00 
 121    8:40   0.79   47.4    28   11.8   164    20.7   763.4    0.00 
 121    8:50   0.82   47.7    29   13.2   159    23.2   763.5    0.00 
 121    9:00   0.85   48.2    29   11.4   162    20.8   763.4    0.00 
 121    9:10   0.88   47.8    28   15.5   153    24.0   763.5    0.00 
 121    9:20   0.90   47.6    28   16.6   150    25.6   763.5    0.00 
 121    9:30   0.93   47.3    28   16.1   153    25.6   763.6    0.00 
 121    9:40   0.91   47.8    28   13.3   139    22.6   763.6    0.00 
 121    9:50   0.98   48.4    28   11.9   144    20.5   763.7    0.00 
 121   10:00   1.00   48.6    28   10.7   137    20.7   763.6    0.00 
 121   10:10   1.02   49.0    27   10.3   157    17.9   763.7    0.00 
 121   10:20   1.04   49.9    26    7.4   126    19.2   763.7    0.00 
 121   10:30   1.05   50.6    25    8.9   134    19.7   763.8    0.00 
 121   10:40   1.07   51.8    24    8.1   113    17.5   763.7    0.00 
 121   10:50   1.10   51.8    24    5.1   109    17.5   763.7    0.00 
 121   11:00   1.13   55.0    22    4.4   103    16.1   763.8    0.00 
 121   11:10   1.23   53.9    22    6.8   150    18.8   763.7    0.00 
 121   11:20   0.68   51.4    24    9.0   109    23.9   763.7    0.00 
 121   11:30   1.15   52.9    23    6.5   136    16.4   763.7    0.00 
 121   11:40   1.16   52.8    23   10.6   184    19.8   763.6    0.00 
 121   11:50   1.13   54.0    22    6.1   108    16.6   763.6    0.00 
 121   12:00   1.15   55.7    21    5.8   132    14.3   763.5    0.00 
 121   12:10   1.14   55.7    22    4.3   104     9.9   763.4    0.00 
 121   12:20   1.19   54.5    20   10.5   118    19.9   763.5    0.00 
 121   12:30   1.16   53.4    21    7.0   126    17.0   763.4    0.00 
 121   12:40   1.11   55.7    19    8.2   102    17.7   763.4    0.00 
 121   12:50   1.08   55.2    20    6.2   124    19.2   763.4    0.00 
 121   13:00   1.06   53.9    19    8.2   125    16.2   763.4    0.00 
 121   13:10   1.07   54.0    20    9.6   122    23.2   763.2    0.00 
 121   13:20   0.90   57.2    19    5.4    83    21.0   763.3    0.00 
 121   13:30   1.01   58.3    17    9.1   128    22.5   763.2    0.00 
 121   13:40   0.98   53.9    20    8.4   149    16.4   763.2    0.00 
 121   13:50   0.95   54.4    19    6.7   118    15.3   763.2    0.00 
 121   14:00   0.93   54.2    19   10.5   144    22.1   763.1    0.00 
 121   14:10   0.90   53.5    19   11.2   150    20.9   763.0    0.00 
 121   14:20   0.87   53.7    18    8.9   129    18.8   762.9    0.00 
 121   14:30   0.84   53.4    18    9.2   146    19.7   762.9    0.00 
 121   14:40   0.76   56.1    16    6.8    92    17.8   762.8    0.00 
 121   14:50   0.69   56.4    18    6.1    94    13.0   762.8    0.00 
 121   15:00   0.75   56.3    18    4.3   109    10.8   762.8    0.00 
 121   15:10   0.71   54.7    18   10.8   154    21.0   762.7    0.00 
 121   15:20   0.67   53.9    19    6.5   127    15.3   762.6    0.00 
 121   15:30   0.64   55.4    17    6.6   122    15.8   762.6    0.00 
 121   15:40   0.60   54.1    17    9.3   128    17.5   762.7    0.00 
 121   15:50   0.56   53.5    17    6.3   147    12.9   762.8    0.00 
 121   16:00   0.52   53.8    19    6.2   132    18.0   762.8    0.00 
 121   16:10   0.48   55.1    18    6.0   102    16.3   762.8    0.00 
 121   16:20   0.44   55.4    18    4.4   130    14.9   762.8    0.00 
 121   16:30   0.40   55.4    18    4.5    65    20.5   762.8    0.00 
 121   16:40   0.36   55.2    18    5.1   116    16.1   762.8    0.00 
 121   16:50   0.32   53.1    18    5.3   143    13.7   762.9    0.00 
 121   17:00   0.28   53.3    18    7.9   122    16.4   762.8    0.00 
 121   17:10   0.24   53.4    18    8.4   121    18.0   762.8    0.00 
 121   17:20   0.21   52.2    19    8.5   139    12.1   762.9    0.00 
 121   17:30   0.17   51.7    19    6.3   125    15.8   762.9    0.00 
 121   17:40   0.14   51.7    19    5.3   117    12.6   762.9    0.00 
 121   17:50   0.11   51.8    19    6.2   130    16.6   762.9    0.00 
 121   18:00   0.08   51.0    19    5.5   123     9.9   762.8    0.00 
 121   18:10   0.05   51.3    19    7.4   116    13.4   763.0    0.00 
 121   18:20   0.02   50.6    19    7.0   132    13.4   763.0    0.00 
 121   18:30   0.01   50.1    18    7.2   138    13.2   763.1    0.00 
 121   18:40   0.00   49.7    18    7.9   141    13.0   763.1    0.00 
 121   18:50   0.00   49.4    18    7.7   155    13.5   763.1    0.00 
 121   19:00   0.00   48.7    18    7.2   164    11.8   763.2    0.00 
 121   19:10   0.00   48.5    18    9.4   166    13.8   763.2    0.00 
 121   19:20   0.00   48.6    18    9.8   164    13.8   763.2    0.00 
 121   19:30   0.00   48.4    17   10.9   168    15.2   763.3    0.00 
 121   19:40   0.00   48.4    17   11.2   170    16.3   763.5    0.00 
 121   19:50   0.00   48.4    17   11.7   173    15.8   763.6    0.00 
 121   20:00   0.00   48.4    17   11.2   168    17.8   763.7    0.00 
 121   20:10   0.00   48.4    17   11.2   167    16.7   763.8    0.00 
 121   20:20   0.00   48.1    17   11.1   170    16.1   763.8    0.00 
 121   20:30   0.00   48.1    17   12.0   182    17.3   763.9    0.00 
 121   20:40   0.00   47.8    17   10.6   197    14.8   764.0    0.00 
 121   20:50   0.00   47.5    16   13.3   195    18.1   764.0    0.00 
 121   21:00   0.00   47.4    16   13.5   194    16.4   764.0    0.00 
 121   21:10   0.00   47.4    16   12.3   196    15.6   764.1    0.00 
 121   21:20   0.00   47.4    16   12.8   198    16.2   764.1    0.00 
 121   21:30   0.00   47.3    16   13.1   195    17.9   764.1    0.00 
 121   21:40   0.00   47.1    15   12.6   197    16.7   764.1    0.00 
 121   21:50   0.00   47.0    16   13.5   195    17.5   764.1    0.00 
 121   22:00   0.00   46.8    16   14.9   194    18.3   764.0    0.00 
 121   22:10   0.00   46.7    16   14.8   204    17.7   764.0    0.00 
 121   22:20   0.00   46.6    16   15.3   204    19.1   764.1    0.00 
 121   22:30   0.00   46.1    18   15.7   200    19.3   764.1    0.00 
 121   22:40   0.00   45.9    18   15.3   200    19.3   764.1    0.00 
 121   22:50   0.00   45.7    19   15.3   198    18.9   764.1    0.00 
 121   23:00   0.00   45.5    19   14.6   199    17.3   764.2    0.00 
 121   23:10   0.00   45.4    19   14.6   195    17.0   764.2    0.00 
 121   23:20   0.00   45.3    19   14.4   195    16.6   764.2    0.00 
 121   23:30   0.00   45.3    19   14.3   193    16.4   764.3    0.00 
 121   23:40   0.00   45.4    20   15.1   189    19.6   764.2    0.00 
 121   23:50   0.00   45.4    20   14.7   186    20.8   764.2    0.00 
 122    0:00   0.00   45.4    20   17.2   185    21.5   764.1    0.00 
 122    0:10   0.00   45.6    20   16.4   183    20.2   764.1    0.00 
 122    0:20   0.00   45.6    20   13.8   180    19.9   764.1    0.00 
 122    0:30   0.00   45.4    20   14.7   175    20.4   764.0    0.00 
 122    0:40   0.00   45.5    19   13.5   180    20.0   764.0    0.00 
 122    0:50   0.00   45.5    19   14.3   177    18.8   763.9    0.00 
 122    1:00   0.00   45.5    19   13.1   181    18.6   763.9    0.00 
 122    1:10   0.00   45.4    19   12.4   176    16.8   763.9    0.00 
 122    1:20   0.00   45.2    19   13.5   179    17.4   763.9    0.00 
 122    1:30   0.00   45.1    19   13.7   186    20.6   763.8    0.00 
 122    1:40   0.00   45.1    19   14.4   190    18.6   763.8    0.00 
 122    1:50   0.00   44.9    20   13.3   198    17.7   763.7    0.00 
 122    2:00   0.00   45.0    21   14.5   205    18.2   763.7    0.00 
 122    2:10   0.00   45.0    21   13.7   212    17.7   763.7    0.00 
 122    2:20   0.00   44.9    21   14.7   210    17.5   763.7    0.00 
 122    2:30   0.00   45.0    21   15.5   207    20.2   763.6    0.00 
 122    2:40   0.00   44.9    21   13.7   206    16.7   763.7    0.00 
 122    2:50   0.00   44.9    21   14.4   206    17.5   763.7    0.00 
 122    3:00   0.00   45.0    22   14.4   210    17.6   763.6    0.00 
 122    3:10   0.00   45.0    22   14.4   210    18.1   763.7    0.00 
 122    3:20   0.00   44.7    23   15.1   208    21.4   763.6    0.00 
 122    3:30   0.00   44.6    23   15.2   213    18.9   763.6    0.00 
 122    3:40   0.00   44.7    23   16.4   219    20.8   763.5    0.00 
 122    3:50   0.00   44.7    23   17.3   220    21.2   763.5    0.00 
 122    4:00   0.00   44.9    23   17.9   223    20.3   763.4    0.00 
 122    4:10   0.00   44.9    24   18.1   223    21.3   763.5    0.00 
 122    4:20   0.00   45.0    24   16.8   225    23.0   763.5    0.00 
 122    4:30   0.00   44.8    24   15.5   218    19.6   763.5    0.00 
 122    4:40   0.00   44.6    24   15.8   224    20.2   763.5    0.00 
 122    4:50   0.01   44.6    24   16.6   221    19.6   763.6    0.00 
 122    5:00   0.02   44.6    24   16.8   222    20.5   763.6    0.00 
 122    5:10   0.04   44.9    24   16.7   224    19.6   763.7    0.00 
 122    5:20   0.07   45.5    23   16.8   223    19.6   763.7    0.00 
 122    5:30   0.08   45.6    24   15.5   227    20.5   763.8    0.00 
 122    5:40   0.11   45.8    24   15.8   228    18.4   763.9    0.00 
 122    5:50   0.15   45.9    24   14.9   227    17.7   764.0    0.00 
 122    6:00   0.18   46.1    24   15.8   227    19.1   764.0    0.00 
 122    6:10   0.20   46.0    25   14.9   226    20.6   764.2    0.00 
 122    6:20   0.25   46.3    24   15.4   232    17.5   764.2    0.00 
 122    6:30   0.32   46.9    25   15.8   236    20.1   764.3    0.00 
 122    6:40   0.33   47.3    25   15.2   236    20.8   764.3    0.00 
 122    6:50   0.39   47.6    25   15.1   235    21.9   764.3    0.00 
 122    7:00   0.41   48.1    25   15.7   236    21.8   764.4    0.00 
 122    7:10   0.45   48.7    24   15.0   242    21.6   764.4    0.00 

Return to Tikaboo Peak graphs page.


Western Regional Climate Center,wrcc@dri.edu